Date,TemperatureHighF,TemperatureAvgF,TemperatureLowF,DewpointHighF,DewpointAvgF,DewpointLowF,HumidityHigh,HumidityAvg,HumidityLow,PressureMaxIn,PressureMinIn,WindSpeedMaxMPH,WindSpeedAvgMPH,GustSpeedMaxMPH,PrecipitationSumIn
2013-1-7,33,19,16,17,-17,-100,80,47,50,30.44,30.35,2,0,0,0.00
2013-1-8,41,18,30,22,-40,-100,70,26,42,30.40,30.30,6,1,0,0.01
2013-1-9,43,19,34,29,-41,-100,62,26,47,30.22,29.99,5,-533,7,0.04
2013-1-10,42,20,28,23,-35,-100,74,28,44,30.63,30.12,7,-462,17,0.00
2013-1-11,40,9,25,30,-66,-100,86,19,45,30.62,30.18,2,-456,17,0.03
2013-1-12,53,17,37,47,-47,-100,95,32,68,30.20,30.10,3,-598,5,0.00
2013-1-13,59,24,37,49,-33,-100,96,38,65,30.18,29.91,5,-536,7,0.00
2013-1-14,49,18,36,44,-44,-100,83,26,50,30.34,29.85,6,-573,12,0.00
2013-1-15,-200,0,200,-100,-100,-100,0,0,100,30.34,30.30,0,-999,12,0.00
2013-1-16,31,7,29,27,-72,-100,91,19,84,30.10,29.84,0,-776,12,0.00
2013-1-17,35,14,18,28,-45,-100,80,27,42,30.19,29.86,8,-507,17,0.00
2013-1-18,21,8,5,3,-55,-100,69,20,32,30.45,30.11,6,-532,19,0.00
2013-1-19,42,16,31,23,-50,-100,55,19,39,30.33,29.83,5,-575,13,0.00
2013-1-20,41,16,20,28,-42,-100,68,23,31,30.05,29.52,26,-468,26,0.00
2013-1-21,24,20,16,15,5,-4,84,55,39,30.15,29.86,6,1,13,0.00
2013-1-22,20,13,8,16,2,-12,84,62,35,30.13,29.85,7,1,12,0.00
2013-1-23,11,4,-1,-14,-16,-22,51,38,26,30.22,30.12,6,1,9,0.00
2013-1-24,16,5,-6,-7,-14,-20,72,44,22,30.44,30.20,11,2,25,0.00
2013-1-25,15,9,0,5,-9,-15,76,46,31,30.51,30.18,5,1,13,0.00
2013-1-26,17,10,3,5,-1,-7,80,62,37,30.42,30.15,7,1,12,0.00
2013-1-27,27,13,2,6,0,-4,80,59,28,30.62,30.42,3,0,8,0.00
2013-1-28,24,18,7,21,12,0,89,79,58,30.61,30.08,0,0,8,0.00
2013-1-29,37,29,24,31,26,21,90,86,79,30.23,30.08,1,0,8,0.01
2013-1-30,60,52,36,55,49,35,96,90,74,29.88,29.33,6,2,12,0.22
2013-1-31,54,38,25,53,27,7,96,67,41,29.65,28.88,16,6,30,0.95
2013-2-1,25,22,16,12,7,0,63,51,42,30.22,29.65,8,3,14,0.00
2013-2-2,24,18,11,12,4,-1,72,56,46,30.34,30.11,5,1,10,0.00
2013-2-3,31,20,9,12,9,5,83,64,36,30.15,29.85,2,0,5,0.00
2013-2-4,24,20,16,15,6,-1,81,54,37,30.03,29.83,6,2,17,0.00
2013-2-5,30,19,8,13,7,1,82,59,36,30.15,29.99,3,0,7,0.00
2013-2-6,33,27,17,20,7,-6,80,45,21,30.44,30.03,9,3,19,0.00
2013-2-7,25,18,10,3,0,-3,57,44,32,30.67,30.44,2,0,6,0.00
2013-2-8,25,23,20,18,13,2,88,69,38,30.50,29.92,5,2,14,0.00
2013-2-9,20,14,9,18,4,-6,89,65,43,30.47,29.92,9,2,14,0.00
2013-2-10,36,13,-6,8,-2,-12,79,56,22,30.69,30.43,1,0,4,0.13
2013-2-11,45,31,9,39,26,3,93,81,47,30.43,29.68,10,1,21,0.18
2013-2-12,38,35,32,29,26,22,75,69,63,29.95,29.71,10,4,22,0.00
2013-2-13,36,31,25,24,20,17,79,66,50,29.94,29.82,4,0,8,0.00
2013-2-14,26,25,24,20,20,19,82,80,77,29.88,29.81,0,0,4,0.00
2013-2-15,44,38,29,30,25,19,92,62,43,30.05,29.94,6,1,16,0.00
2013-2-16,33,28,21,27,18,3,88,66,45,30.06,29.94,3,0,7,0.01
2013-2-17,21,16,10,6,1,-5,67,52,39,30.01,29.75,8,3,18,0.00
2013-2-18,29,17,8,5,-3,-9,61,42,20,30.27,30.01,10,3,20,0.00
2013-2-19,44,28,13,32,18,4,94,68,33,30.28,29.65,9,1,17,0.10
2013-2-20,33,26,21,32,18,13,94,72,58,29.90,29.65,6,2,12,0.01
2013-2-21,25,21,17,14,9,5,73,61,50,30.40,29.90,6,2,12,0.00
2013-2-22,40,35,29,22,20,18,68,55,42,30.51,30.32,3,0,4,11.89
2013-2-23,36,34,32,30,26,20,83,72,58,30.32,29.96,5,1,10,0.00
2013-2-24,39,34,31,32,30,28,91,85,70,30.00,29.78,3,0,6,0.07
2013-2-25,37,31,27,29,26,24,91,83,69,30.33,30.00,1,0,4,0.02
2013-2-26,44,34,24,32,26,21,93,73,53,30.42,30.17,5,1,12,0.00
2013-2-27,38,34,31,34,30,24,92,85,67,30.17,29.68,9,4,17,0.62
2013-2-28,42,35,32,37,31,29,93,87,72,29.70,29.60,2,0,4,0.03
2013-3-1,38,34,31,32,27,24,93,75,58,29.79,29.65,7,2,16,0.01
2013-3-2,33,30,26,26,24,20,83,78,70,29.79,29.70,5,2,11,0.01
2013-3-3,30,27,23,24,21,18,83,78,71,29.78,29.68,3,0,10,0.05
2013-3-4,34,28,24,21,18,16,78,68,53,29.92,29.69,6,1,13,0.00
2013-3-5,41,30,26,26,22,18,84,71,52,30.16,29.92,3,0,5,0.00
2013-3-6,38,34,28,30,26,21,85,74,61,30.21,30.11,4,2,10,0.01
2013-3-7,39,32,28,27,24,20,89,72,55,30.21,30.15,3,0,6,0.00
2013-3-8,39,30,26,28,25,20,90,81,62,30.37,30.16,3,1,6,0.14
2013-3-9,54,33,16,26,21,13,91,66,27,30.45,30.30,2,0,5,0.14
2013-3-10,57,39,20,30,21,15,92,58,20,30.47,30.22,4,1,8,0.00
2013-3-11,43,41,36,28,26,25,70,56,48,30.26,30.20,3,1,6,0.00
2013-3-12,51,46,37,48,44,35,95,92,76,29.98,29.67,6,1,12,0.58
2013-3-13,44,38,34,35,24,15,91,60,35,29.86,29.78,6,2,14,0.00
2013-3-14,34,24,20,23,12,5,76,60,45,29.98,29.84,9,3,16,0.00
2013-3-15,34,26,16,27,14,3,83,61,35,30.01,29.68,8,3,19,0.00
2013-3-16,34,27,20,20,12,8,71,55,37,29.97,29.80,7,1,13,0.00
2013-3-17,33,25,17,15,6,-3,73,48,24,30.42,29.97,9,2,19,0.00
2013-3-18,39,25,9,22,4,-4,83,47,18,30.58,30.19,4,1,7,0.00
2013-3-19,32,29,26,29,25,21,92,84,75,30.19,29.69,7,2,17,0.01
2013-3-20,33,28,24,24,18,16,88,66,53,29.81,29.70,7,3,17,0.12
2013-3-21,38,28,19,18,14,7,74,56,31,29.79,29.62,6,1,16,0.14
2013-3-22,33,23,13,27,15,8,87,73,56,29.72,29.66,4,1,16,0.02
2013-3-23,37,35,33,19,17,14,57,47,40,29.86,29.71,10,6,27,0.01
2013-3-24,42,35,29,23,21,19,71,57,45,29.92,29.76,5,1,27,0.00
2013-3-25,43,35,26,26,22,20,80,62,44,29.82,29.53,2,0,27,0.00
2013-3-26,46,35,27,29,24,17,88,65,31,29.82,29.61,6,1,27,0.00
2013-3-27,50,35,21,32,24,18,89,66,39,29.93,29.80,6,1,27,0.00
2013-3-28,47,39,32,35,31,28,91,74,53,30.10,29.93,6,1,27,0.02
2013-3-29,48,39,32,34,30,27,89,71,49,30.14,30.03,4,1,27,0.00
2013-3-30,55,41,26,31,20,12,88,50,19,30.17,30.04,6,1,27,0.00
2013-3-31,56,39,22,37,24,18,88,62,25,30.18,29.76,7,1,27,0.11
2013-4-1,50,38,29,42,30,8,94,74,31,29.84,29.55,11,2,27,0.13
2013-4-2,33,28,25,20,13,8,77,51,36,29.98,29.83,10,4,27,0.00
2013-4-3,41,32,25,18,9,2,65,40,20,30.25,29.95,10,4,27,0.00
2013-4-4,51,38,26,20,16,13,68,44,24,30.37,29.99,6,2,27,0.00
2013-4-5,53,43,35,25,19,14,55,39,26,29.99,29.73,8,3,27,0.00
2013-4-6,45,36,26,14,6,0,59,30,16,30.37,30.26,7,2,27,0.00
2013-4-7,60,43,24,37,23,13,76,50,21,30.35,29.87,7,2,27,0.00
2013-4-8,64,51,43,40,34,26,76,53,24,30.14,29.94,5,1,27,0.00
2013-4-9,62,54,45,50,42,34,95,66,43,30.03,29.84,9,2,27,0.03
2013-4-10,56,49,45,50,45,42,96,88,71,30.03,29.87,2,0,27,0.10
2013-4-11,45,38,32,43,32,26,94,81,61,30.22,29.92,3,0,27,0.02
2013-4-12,36,34,32,30,28,25,85,79,67,30.22,29.89,7,3,27,0.03
2013-4-13,50,40,33,38,33,28,93,79,55,30.00,29.85,4,0,27,0.42
2013-4-14,46,40,31,35,29,23,94,69,44,30.30,29.98,6,1,27,0.04
2013-4-15,64,45,25,35,28,22,91,57,30,30.44,30.22,4,1,8,0.00
2013-4-16,62,53,41,53,43,32,89,68,52,30.33,29.98,8,3,18,0.33
2013-4-17,62,50,38,47,34,28,88,55,28,30.38,30.06,7,2,11,0.00
2013-4-18,64,51,33,45,32,24,82,51,31,30.41,30.04,9,3,13,0.00
2013-4-19,72,64,49,60,54,45,88,70,58,30.03,29.49,14,4,24,0.62
2013-4-20,51,43,34,44,30,16,89,61,34,30.34,29.71,10,3,16,0.14
2013-4-21,51,37,28,19,15,7,63,43,18,30.74,30.33,7,2,12,0.00
2013-4-22,56,42,27,27,19,14,74,44,22,30.78,30.54,6,2,13,0.00
2013-4-23,38,35,32,27,25,24,73,68,61,30.59,30.53,4,1,12,0.00
2013-4-27,66,56,39,32,27,20,70,36,19,30.43,30.28,4,1,7,0.00
2013-4-28,75,54,31,38,32,28,88,50,19,30.37,30.09,5,1,7,0.00
2013-4-29,65,56,47,41,38,33,71,50,36,30.22,30.13,4,1,8,0.00
2013-4-30,74,59,48,44,37,31,74,47,25,30.31,30.18,4,0,8,0.00
2013-5-1,79,58,38,38,32,18,83,45,11,30.46,30.30,3,0,12,0.00
2013-5-2,82,61,39,44,37,28,87,47,19,30.48,30.24,4,1,12,0.00
2013-5-3,71,58,46,42,33,21,72,41,23,30.51,30.29,4,1,12,0.00
2013-5-4,77,60,39,46,35,18,93,49,12,30.38,30.15,3,1,12,0.00
2013-5-5,77,58,38,36,30,22,71,38,14,30.31,30.10,4,1,12,0.00
2013-5-6,80,57,35,42,34,27,90,51,15,30.27,30.02,3,0,12,0.00
2013-5-7,86,62,40,53,41,32,92,55,19,30.19,29.97,3,0,7,0.00
2013-5-8,74,60,46,59,52,43,94,77,47,30.16,30.00,5,1,11,0.17
2013-5-9,68,60,50,58,54,49,96,82,57,29.99,29.84,2,0,4,0.02
2013-5-10,76,62,51,59,53,47,96,75,38,29.98,29.83,3,0,5,0.00
2013-5-11,68,61,57,62,58,53,94,90,77,29.82,29.63,4,0,8,0.21
2013-5-12,60,53,44,53,40,22,90,64,27,29.84,29.63,8,2,13,0.01
2013-5-13,46,41,39,30,28,25,65,58,49,30.02,29.85,8,4,19,0.00
2013-5-14,55,47,31,33,29,23,92,53,30,30.13,30.01,5,1,11,0.00
2013-5-15,62,46,27,50,37,25,92,72,31,30.11,29.62,5,1,11,0.01
2013-5-16,75,63,46,49,38,25,83,44,18,29.84,29.61,8,3,22,0.00
2013-5-17,69,55,43,41,38,32,83,56,26,30.25,29.85,7,1,22,0.00
2013-5-18,71,55,35,45,38,32,93,59,26,30.34,30.18,3,0,22,0.00
2013-5-19,65,54,41,55,49,38,95,85,63,30.33,30.16,4,0,22,0.12
2013-5-20,75,63,55,63,58,53,95,85,62,30.15,29.92,3,0,22,0.00
2013-5-21,86,70,56,66,60,54,96,75,42,29.97,29.74,4,1,22,0.33
2013-5-22,81,66,56,68,62,54,96,88,59,29.91,29.75,6,0,11,0.77
2013-5-23,77,68,60,67,63,59,96,85,63,29.80,29.70,4,1,11,0.05
2013-5-24,64,52,43,62,49,40,96,90,78,29.97,29.62,5,1,11,0.39
2013-5-25,44,42,40,42,40,37,93,91,89,29.96,29.86,4,1,11,0.42
2013-5-26,51,43,38,43,39,36,95,86,64,30.15,29.86,5,2,11,0.08
2013-5-27,70,53,35,43,37,31,96,62,25,30.21,30.07,5,1,14,0.00
2013-5-28,75,58,36,51,41,28,96,62,21,30.25,30.08,2,0,11,0.00
2013-5-29,74,63,56,66,60,50,96,91,73,30.09,29.92,2,0,11,0.38
2013-5-30,85,73,61,67,64,60,97,74,50,30.07,29.97,4,1,11,0.00
2013-5-31,90,75,58,68,62,57,96,69,33,30.09,29.87,5,1,11,0.00
2013-6-1,67,64,61,64,62,59,96,94,91,29.93,29.91,1,0,11,0.00
2013-6-11,60,59,58,58,57,56,96,94,90,29.59,29.56,3,0,13,1.15
2013-6-12,69,59,52,56,53,50,94,82,51,29.86,29.58,5,1,12,0.13
2013-6-13,53,51,48,51,49,47,94,94,93,29.85,29.82,0,0,11,0.00
2013-6-15,75,70,57,50,46,41,67,42,32,29.93,29.84,5,2,11,0.00
2013-6-16,74,60,46,61,53,44,93,78,50,29.97,29.69,5,1,11,0.06
2013-6-17,79,67,58,63,59,55,93,78,44,29.89,29.74,6,1,12,0.12
2013-6-18,64,59,51,60,55,49,94,87,74,29.97,29.88,4,0,11,0.08
2013-6-19,71,58,44,52,44,32,96,67,25,30.20,29.97,4,1,11,0.00
2013-6-20,77,60,40,52,44,34,95,63,22,30.30,30.15,3,0,11,0.00
2013-6-21,84,66,49,59,52,46,95,66,29,30.26,30.15,3,0,11,0.00
2013-6-22,85,69,52,66,59,50,95,74,41,30.21,30.02,4,0,11,0.00
2013-6-23,90,76,66,71,67,62,94,75,47,30.08,29.88,4,1,13,0.10
2013-6-24,87,71,65,75,67,62,96,87,57,29.99,29.87,4,0,11,1.52
2013-6-25,88,73,63,72,66,62,97,83,49,29.95,29.71,4,0,11,0.34
2013-6-26,77,70,65,69,67,64,97,90,70,29.80,29.72,1,0,11,0.38
2013-6-27,86,72,62,72,66,61,97,83,53,29.81,29.64,2,0,11,0.03
2013-6-28,80,70,63,69,64,59,95,84,60,29.64,29.42,4,1,11,0.50
2013-6-29,82,71,65,68,65,60,97,83,47,29.66,29.45,4,1,11,0.17
2013-6-30,85,71,64,70,66,62,97,84,53,29.88,29.66,5,0,11,0.06
2013-7-1,80,70,64,71,68,63,97,91,66,30.00,29.88,1,0,11,0.62
2013-7-2,86,73,66,75,69,64,97,87,61,30.12,29.99,3,0,11,0.77
2013-7-3,85,76,68,72,70,67,97,82,59,30.16,30.06,2,0,11,0.30
2013-7-4,90,80,71,73,70,68,93,74,50,30.16,30.00,3,1,11,0.02
2013-7-5,90,81,73,73,71,67,92,73,49,30.11,29.96,5,1,11,0.67
2013-7-6,85,75,67,71,68,63,97,79,53,30.07,29.96,4,1,11,0.03
2013-7-7,89,74,64,73,67,62,95,82,51,30.02,29.85,3,0,11,0.22
2013-7-8,81,74,70,71,69,66,97,84,63,30.00,29.89,3,0,11,0.01
2013-7-9,84,73,67,75,69,65,96,86,58,30.05,29.95,1,0,11,0.15
2013-7-10,85,73,66,72,69,65,96,88,61,29.98,29.74,3,0,11,0.44
2013-7-11,79,73,71,71,67,63,95,81,60,29.82,29.71,2,0,11,0.00
2013-7-12,84,73,58,64,60,55,95,65,42,30.15,30.04,1,0,11,0.00
2013-7-13,78,71,64,68,62,54,92,73,54,30.27,30.16,3,0,7,0.00
2013-7-14,86,76,66,72,68,65,95,79,54,30.30,30.16,2,0,7,0.00
2013-7-15,92,78,66,72,68,64,96,75,41,30.22,30.06,4,0,7,0.00
2013-7-16,92,77,63,70,66,61,97,72,40,30.20,30.09,4,1,10,0.00
2013-7-17,92,80,64,73,68,62,96,70,44,30.18,29.92,3,1,9,0.00
2013-7-18,91,83,72,74,71,66,92,69,50,29.98,29.86,5,1,8,0.00
2013-7-19,93,82,69,74,69,65,91,67,44,29.88,29.63,11,2,26,0.73
2013-7-20,84,73,67,69,67,65,96,83,56,29.72,29.64,5,1,10,0.00
2013-7-21,81,74,63,65,62,58,91,68,48,29.97,29.89,2,0,6,0.00
2013-7-22,64,62,61,63,60,59,97,94,92,30.00,29.96,0,0,4,0.37
2013-7-24,76,67,54,62,55,47,78,66,52,30.02,29.72,6,2,12,0.00
2013-7-25,76,62,47,58,51,44,92,70,46,30.11,30.02,2,0,9,0.00
2013-7-26,74,64,56,60,56,53,92,78,49,30.07,29.96,3,0,8,0.00
2013-7-27,83,68,52,64,57,50,98,72,34,30.07,29.91,3,0,7,0.00
2013-7-28,77,67,58,69,63,57,96,88,66,29.98,29.90,1,0,7,0.05
2013-7-29,81,71,60,68,61,52,96,74,45,30.06,29.93,3,0,8,0.02
2013-7-30,77,66,53,59,55,51,96,70,45,30.14,30.03,2,0,6,0.00
2013-7-31,82,67,54,63,57,52,96,74,42,30.16,29.99,1,0,3,0.00
2013-8-1,76,63,53,65,59,51,96,88,63,30.03,29.82,2,0,6,0.14
2013-8-2,79,70,60,65,59,53,96,71,41,29.85,29.76,6,1,12,0.01
2013-8-3,79,65,56,60,56,51,95,74,40,29.84,29.75,6,1,14,0.06
2013-8-4,74,63,53,59,54,49,95,73,47,29.94,29.80,5,1,11,0.00
2013-8-5,75,60,48,53,47,40,96,67,31,30.07,29.94,5,1,11,0.00
2013-8-6,78,62,45,57,50,43,96,70,37,30.14,30.05,3,0,11,0.00
2013-8-7,78,67,55,62,58,53,93,75,44,30.14,30.01,2,0,12,0.00
2013-8-8,84,74,66,69,66,61,87,77,54,30.01,29.91,4,0,8,0.00
2013-8-9,79,74,71,71,69,65,95,86,74,29.93,29.72,2,0,8,0.00
2013-8-10,78,70,61,66,56,39,93,64,25,29.90,29.78,5,1,12,0.00
2013-8-17,80,71,56,61,57,51,92,64,37,30.27,30.19,2,0,8,0.00
2013-8-18,76,61,52,62,56,51,97,84,56,30.29,30.10,0,0,1,0.00
2013-8-19,81,67,53,63,58,52,97,76,48,30.10,29.94,2,0,8,0.00
2013-8-20,84,68,54,65,59,52,97,76,42,30.11,30.00,2,0,7,0.00
2013-8-21,85,69,56,66,60,54,97,76,43,30.17,29.99,2,0,5,0.00
2013-8-22,86,71,57,67,62,56,97,76,39,30.03,29.77,2,0,10,0.12
2013-8-23,74,64,50,65,56,46,96,78,39,30.18,29.84,4,0,7,0.01
2013-8-24,79,60,44,56,50,42,97,73,36,30.35,30.18,1,0,3,0.00
2013-8-25,80,62,44,61,53,42,97,75,39,30.42,30.14,2,0,3,0.00
2013-8-26,76,68,61,67,62,58,93,84,69,30.14,29.87,2,0,5,0.05
2013-8-27,82,70,65,69,66,63,95,87,62,29.89,29.81,1,0,5,0.01
2013-8-28,87,71,63,71,65,62,96,84,46,29.93,29.78,2,0,5,0.26
2013-8-29,79,68,60,65,62,58,97,83,57,30.04,29.92,1,0,5,0.00
2013-8-30,83,71,62,68,64,60,95,81,55,29.99,29.77,2,0,6,0.00
2013-8-31,79,71,67,73,68,64,96,92,79,29.80,29.70,1,0,5,0.16
2013-9-1,83,73,68,71,68,66,96,86,62,29.83,29.76,1,0,5,0.00
2013-9-2,84,71,64,73,68,61,97,89,61,29.80,29.63,7,0,10,0.02
2013-9-3,72,65,63,65,62,61,96,93,70,29.78,29.70,2,0,5,0.00
2013-9-4,77,68,62,58,49,-100,83,56,45,29.91,29.83,5,-36,9,0.00
2013-9-5,66,59,45,58,49,40,93,71,39,30.19,29.85,3,0,7,0.01
2013-9-6,67,51,38,48,42,36,96,74,35,30.32,30.12,2,0,7,0.00
2013-9-7,71,57,45,57,50,43,94,79,44,30.13,29.86,2,0,7,0.00
2013-9-8,66,57,42,57,49,40,93,76,47,30.15,29.80,4,1,10,0.01
2013-9-9,68,52,37,53,44,35,96,76,44,30.30,30.09,2,0,7,0.00
2013-9-10,79,65,52,69,62,49,95,88,70,30.11,29.95,2,0,7,0.11
2013-9-11,91,77,68,76,70,65,96,82,52,30.05,29.85,9,0,16,0.45
2013-9-12,68,67,67,66,66,65,95,95,94,29.93,29.86,1,0,7,0.00
2013-9-19,85,79,69,54,53,53,60,42,34,30.80,30.80,0,0,7,0.08